Impacts TAF Board INFO
FOR SITUATIONAL AWARENESS. NOT TO BE USED FOR FLIGHT PLANNING PURPOSES.
IDs:

KPHX - Phoenix/Sky Harbor, AZ, US

Issued at 2327 UTC 11 Dec 2017
Updated at 0033 UTC 12 Dec 2017
Potential Impact None Slight Moderate High
Time2351Z 12/01Z 12/02Z 12/03Z 12/04Z 12/05Z 12/06Z 12/07Z 12/08Z 12/09Z 12/10Z 12/11Z 12/12Z 12/13Z>>
Type OBS PRVL PRVL PRVL PRVL PRVL PRVL PRVL PRVL PRVL PRVL PRVL PRVL PRVL
VIS 10 >6 >6 >6 >6 >6 >6 >6 >6 >6 >6 >6 >6 >6
CIG 240 250 250 250 250 250 250 250 250 250 250 250 250 250
Cover BKN BKN BKN BKN BKN BKN BKN BKN BKN BKN BKN BKN BKN BKN
FltCat VFR VFR VFR VFR VFR VFR VFR VFR VFR VFR VFR VFR VFR VFR
WX -- -- -- -- -- -- -- -- -- -- -- -- -- --
WDir VRB VRB VRB VRB 70 70 70 70 70 70 70 70 70 70
WSpd 0 4 4 4 7 7 7 7 7 7 7 7 7 7
WGst -- -- -- -- -- -- -- -- -- -- -- -- -- --

Raw TAF
KPHX 112327Z 1200/1306 VRB04KT P6SM FEW150 BKN250
  FM120400 07007KT P6SM BKN250


Raw METAR
KPHX 112351Z 00000KT 10SM FEW160 SCT190 BKN240 23/M09 A3016 RMK AO2 SLP201 T02331089 10244 20194 55003
KPHX 112251Z 00000KT 10SM FEW160 SCT190 BKN240 24/M13 A3015 RMK AO2 SLP200 T02441133
KPHX 112151Z 00000KT 10SM SCT180 BKN210 BKN250 23/M14 A3016 RMK AO2 SLP202 T02331139

METAR Board
Radar Display
Forecast Discussion

FOR SITUATIONAL AWARENESS. NOT TO BE USED FOR FLIGHT PLANNING PURPOSES.